ΕΜΥ, Εθνική Μετεωρολογική Υπηρεσία - Δελτία Καιρού, Προγνώσεις

ΑΕΡΟΝΑΥΤΙΛΙΑ

GREEK AIRPORTS CODES

LGTT 221030Z 36011G26KT 9999 FEW012 SCT025 03/M02 Q1014 RMK BKN070=

EUROPEAN AIRPORTS CODES

TAF LGTT 220700Z 2209/2218 01015G25KT 9999 FEW010 BKN025 PROB40 TEMPO 2209/2215 5000 RA SCT016 FEW018TCU BKN020 PROB30 TEMPO 2209/2215 4000 SNRA SCT012 BKN018 OVC050=